Time;durP1;ratioP1;P1;durP2;ratioP2;P2;SDS_P1;SDS_P2;PMS_P1;PMS_P2;Temp;Humidity;BMP_temperature;BMP_pressure;BME280_temperature;BME280_humidity;BME280_pressure;Samples;Min_cycle;Max_cycle;Signal;HPM_P1;HPM_P2
2022/09/11 00:01:56;;;;;;;6.63;5.50;;;16.50;35.70;;;;;;5087329;28;20368;-81
2022/09/11 00:04:38;;;;;;;10.73;6.20;;;16.50;34.00;;;;;;5073335;28;20417;-82
2022/09/11 00:07:26;;;;;;;9.83;6.00;;;16.40;32.10;;;;;;5073536;28;20386;-82
2022/09/11 00:10:39;;;;;;;10.57;5.10;;;16.40;33.10;;;;;;5080153;28;20401;-82
2022/09/11 00:13:27;;;;;;;9.70;5.80;;;16.30;33.40;;;;;;5086864;28;20845;-82
2022/09/11 00:16:23;;;;;;;12.03;6.40;;;16.30;31.90;;;;;;5077165;28;20535;-82
2022/09/11 00:18:49;;;;;;;10.77;6.63;;;16.20;36.60;;;;;;5083692;28;20508;-77
2022/09/11 00:21:16;;;;;;;8.70;7.17;;;16.20;33.60;;;;;;5088283;28;20431;-77
2022/09/11 00:23:48;;;;;;;13.33;6.53;;;16.10;40.40;;;;;;5080235;28;20396;-77
2022/09/11 00:26:21;;;;;;;13.73;6.47;;;16.10;41.00;;;;;;5073737;28;20408;-77
2022/09/11 00:28:49;;;;;;;10.43;7.20;;;16.20;49.60;;;;;;5071897;28;20448;-77
2022/09/11 00:31:38;;;;;;;10.67;7.53;;;16.20;36.70;;;;;;5077652;28;20436;-77
2022/09/11 00:34:05;;;;;;;10.53;7.80;;;16.20;47.40;;;;;;5077768;28;20408;-77
2022/09/11 00:36:35;;;;;;;16.77;8.40;;;16.30;47.10;;;;;;5073529;28;20816;-77
2022/09/11 00:39:03;;;;;;;12.47;8.60;;;16.30;47.50;;;;;;5087300;28;20448;-77
2022/09/11 00:41:42;;;;;;;10.37;8.17;;;16.30;46.40;;;;;;5073553;28;20406;-77
2022/09/11 00:44:27;;;;;;;12.53;9.37;;;16.40;41.50;;;;;;5090652;28;20617;-77
2022/09/11 00:46:54;;;;;;;15.90;9.70;;;16.40;46.00;;;;;;5079724;28;20418;-77
2022/09/11 00:49:46;;;;;;;16.07;10.37;;;16.50;41.00;;;;;;5080977;28;20428;-77
2022/09/11 00:52:40;;;;;;;17.33;9.33;;;16.50;38.00;;;;;;5073696;28;20442;-77
2022/09/11 00:55:11;;;;;;;18.80;9.80;;;16.50;42.50;;;;;;5074655;28;20443;-78
2022/09/11 00:57:45;;;;;;;12.27;9.50;;;16.60;36.30;;;;;;5083011;28;20745;-77
2022/09/11 01:00:15;;;;;;;15.07;10.13;;;16.60;33.60;;;;;;5076598;28;20450;-77
2022/09/11 01:02:45;;;;;;;23.73;10.10;;;16.60;32.60;;;;;;5084425;28;20491;-77
2022/09/11 01:05:11;;;;;;;15.70;10.47;;;16.70;29.50;;;;;;5088156;28;20414;-78
2022/09/11 01:07:39;;;;;;;16.80;10.27;;;16.60;26.70;;;;;;5082621;28;20771;-77
2022/09/11 01:10:06;;;;;;;16.53;10.47;;;16.60;28.20;;;;;;5088774;28;20405;-77
2022/09/11 01:13:03;;;;;;;17.63;11.43;;;16.70;26.40;;;;;;5086533;28;20393;-77
2022/09/11 01:16:02;;;;;;;18.83;11.43;;;16.70;27.70;;;;;;5079024;28;20431;-77
2022/09/11 01:18:51;;;;;;;19.10;11.73;;;16.70;25.50;;;;;;5078156;28;20479;-82
2022/09/11 01:21:51;;;;;;;21.60;12.00;;;16.80;25.90;;;;;;5072989;28;20494;-83
2022/09/11 01:28:12;;;;;;;33.13;13.70;;;16.80;26.40;;;;;;5092803;28;20386;-82
2022/09/11 01:30:47;;;;;;;19.70;13.60;;;16.80;26.60;;;;;;5082222;28;20407;-82
2022/09/11 01:33:29;;;;;;;18.70;12.20;;;16.80;26.60;;;;;;5084071;28;20400;-82
2022/09/11 01:36:52;;;;;;;22.53;13.13;;;16.80;25.10;;;;;;5082646;28;20465;-82
2022/09/11 01:39:42;;;;;;;23.10;14.23;;;16.80;25.10;;;;;;5089832;28;21014;-82
2022/09/11 01:42:16;;;;;;;24.43;15.60;;;16.80;22.30;;;;;;5087244;28;20402;-82
2022/09/11 01:44:53;;;;;;;26.60;13.77;;;16.80;23.10;;;;;;5076227;28;20411;-82
2022/09/11 01:47:21;;;;;;;28.70;13.87;;;16.80;23.40;;;;;;5078037;28;20395;-78
2022/09/11 01:49:49;;;;;;;24.80;14.30;;;16.80;22.30;;;;;;5085413;28;20400;-77
2022/09/11 01:52:20;;;;;;;20.63;13.53;;;16.70;22.00;;;;;;5080837;28;20410;-77
2022/09/11 01:54:55;;;;;;;29.23;12.77;;;16.70;21.40;;;;;;5084259;28;20423;-77
2022/09/11 01:57:41;;;;;;;22.70;13.97;;;16.70;21.20;;;;;;5096224;28;20397;-77
2022/09/11 02:00:10;;;;;;;28.87;15.13;;;16.60;19.70;;;;;;5096174;28;20364;-77
2022/09/11 02:02:44;;;;;;;23.20;14.90;;;16.60;19.00;;;;;;5093153;28;20935;-77
2022/09/11 02:05:21;;;;;;;24.63;14.80;;;16.40;22.20;;;;;;5094458;28;20375;-77
2022/09/11 02:08:19;;;;;;;27.20;14.37;;;16.30;20.00;;;;;;5074635;28;20447;-77
2022/09/11 02:11:04;;;;;;;33.47;15.13;;;16.30;21.00;;;;;;5024972;28;21209;-77
2022/09/11 02:13:44;;;;;;;29.53;14.90;;;16.30;19.20;;;;;;5033725;28;20419;-77
2022/09/11 02:16:21;;;;;;;34.13;17.10;;;16.20;19.00;;;;;;5015823;28;20454;-77
2022/09/11 02:19:10;;;;;;;38.40;17.50;;;16.10;17.70;;;;;;5033324;28;20909;-77
2022/09/11 02:21:39;;;;;;;32.73;15.80;;;16.00;18.80;;;;;;5016970;28;20449;-77
2022/09/11 02:24:09;;;;;;;32.43;15.73;;;15.90;20.30;;;;;;5033591;28;20989;-76
2022/09/11 02:26:59;;;;;;;31.10;16.70;;;15.90;21.40;;;;;;5033217;28;20435;-77
2022/09/11 02:29:39;;;;;;;44.13;17.90;;;15.80;20.90;;;;;;5033306;28;20422;-77
2022/09/11 02:32:10;;;;;;;42.13;18.27;;;15.70;24.10;;;;;;5027895;28;20451;-76
2022/09/11 02:34:54;;;;;;;33.33;16.50;;;15.70;26.00;;;;;;5031996;28;20439;-82
2022/09/11 02:37:26;;;;;;;33.00;16.63;;;15.60;27.70;;;;;;5016431;28;20420;-82
2022/09/11 02:39:54;;;;;;;30.80;16.83;;;15.60;28.70;;;;;;5007851;28;20834;-82
2022/09/11 02:42:38;;;;;;;34.57;16.97;;;15.70;28.10;;;;;;5033128;28;20412;-82
2022/09/11 02:45:31;;;;;;;31.40;16.77;;;15.60;28.20;;;;;;5033249;28;20415;-83
2022/09/11 02:48:35;;;;;;;31.20;16.57;;;15.60;30.70;;;;;;5071316;28;20467;-77
2022/09/11 02:51:14;;;;;;;37.60;16.37;;;15.60;32.90;;;;;;5085967;28;20467;-77
2022/09/11 02:53:42;;;;;;;39.57;16.43;;;15.60;34.60;;;;;;5093671;28;20897;-77
2022/09/11 02:56:18;;;;;;;46.80;16.67;;;15.60;37.80;;;;;;5081882;28;20545;-77
2022/09/11 02:58:55;;;;;;;42.10;17.60;;;15.60;37.60;;;;;;5088196;28;20410;-77
2022/09/11 03:02:00;;;;;;;34.60;17.43;;;15.70;38.30;;;;;;5082391;28;20500;-77
2022/09/11 03:04:30;;;;;;;33.27;16.53;;;15.60;34.80;;;;;;5046181;28;20819;-77
2022/09/11 03:07:20;;;;;;;35.20;17.63;;;15.60;34.20;;;;;;5052954;28;20381;-77
2022/09/11 03:09:51;;;;;;;40.10;17.03;;;15.60;34.00;;;;;;5052519;28;20414;-77
2022/09/11 03:12:20;;;;;;;27.17;16.47;;;15.60;32.60;;;;;;5024300;28;20413;-77
2022/09/11 03:14:51;;;;;;;31.60;15.40;;;15.60;34.70;;;;;;5051608;28;20376;-77
2022/09/11 03:17:32;;;;;;;28.10;16.10;;;15.50;37.60;;;;;;5037307;28;20438;-77
2022/09/11 03:20:03;;;;;;;33.10;16.30;;;15.50;46.80;;;;;;5044780;28;20392;-82
2022/09/11 03:23:20;;;;;;;34.30;18.07;;;15.60;47.10;;;;;;5052126;28;20459;-82
2022/09/11 03:25:50;;;;;;;31.80;16.50;;;15.60;43.80;;;;;;5052131;28;20501;-82
2022/09/11 03:28:16;;;;;;;39.63;17.80;;;15.60;46.80;;;;;;5052253;28;20528;-82
2022/09/11 03:30:51;;;;;;;38.07;17.60;;;15.60;46.90;;;;;;5051752;28;20440;-82
2022/09/11 03:37:02;;;;;;;35.30;17.33;;;15.70;47.00;;;;;;5051764;28;20859;-82
2022/09/11 03:39:44;;;;;;;34.57;16.40;;;15.70;46.90;;;;;;5091960;28;20390;-82
2022/09/11 03:42:14;;;;;;;36.43;16.87;;;15.70;47.00;;;;;;5086529;28;20376;-82
2022/09/11 03:45:20;;;;;;;40.60;17.13;;;15.70;47.00;;;;;;5087074;28;20860;-82
2022/09/11 03:47:46;;;;;;;34.13;16.90;;;15.70;47.00;;;;;;5080826;28;20424;-82
2022/09/11 03:50:21;;;;;;;44.00;16.23;;;15.70;47.00;;;;;;5074205;28;20372;-82
2022/09/11 03:52:57;;;;;;;31.90;17.57;;;15.70;47.00;;;;;;5087140;28;20632;-82
2022/09/11 03:55:27;;;;;;;32.40;17.30;;;15.70;47.00;;;;;;5088838;28;20495;-82
2022/09/11 03:58:03;;;;;;;31.83;17.00;;;15.70;47.00;;;;;;5093627;28;20383;-83
2022/09/11 04:03:50;;;;;;;37.00;17.03;;;15.80;47.00;;;;;;5084430;28;20392;-81
2022/09/11 04:09:37;;;;;;;34.90;16.53;;;15.80;47.10;;;;;;5086161;28;20819;-82
2022/09/11 04:12:15;;;;;;;33.40;17.20;;;15.80;47.10;;;;;;5075475;28;20417;-82
2022/09/11 04:15:20;;;;;;;34.37;17.00;;;15.70;47.00;;;;;;5074321;28;20232;-82
2022/09/11 04:18:32;;;;;;;31.27;16.83;;;15.70;47.20;;;;;;5087112;28;20717;-85
2022/09/11 04:20:58;;;;;;;28.40;15.60;;;15.70;47.00;;;;;;5075281;28;20392;-78
2022/09/11 04:23:33;;;;;;;38.70;17.70;;;15.70;47.00;;;;;;5087400;28;20371;-76
2022/09/11 04:26:16;;;;;;;49.73;18.50;;;15.70;47.00;;;;;;5084765;28;20178;-77
2022/09/11 04:28:42;;;;;;;48.37;17.93;;;15.70;47.00;;;;;;5088842;28;20407;-77
2022/09/11 04:31:09;;;;;;;39.73;18.67;;;15.60;46.80;;;;;;5073615;28;20508;-78
2022/09/11 04:33:36;;;;;;;35.50;18.30;;;15.60;46.90;;;;;;5087736;28;20409;-79
2022/09/11 04:36:06;;;;;;;37.50;17.00;;;15.50;47.00;;;;;;5074195;28;20473;-83
2022/09/11 04:38:42;;;;;;;45.03;17.07;;;15.50;43.50;;;;;;5084593;28;20889;-83
2022/09/11 04:41:15;;;;;;;45.10;16.33;;;15.50;35.60;;;;;;5078231;28;20400;-82
2022/09/11 04:43:44;;;;;;;31.10;15.33;;;15.50;33.20;;;;;;5074690;28;20942;-83
2022/09/11 04:49:32;;;;;;;31.93;14.97;;;15.40;41.30;;;;;;5087397;28;20451;-81
2022/09/11 04:52:50;;;;;;;33.90;16.43;;;15.40;41.50;;;;;;5072090;28;20435;-81
2022/09/11 04:55:38;;;;;;;31.93;16.00;;;15.20;45.90;;;;;;5080990;28;20449;-81
2022/09/11 04:58:08;;;;;;;39.87;17.73;;;15.20;46.70;;;;;;5081442;28;20376;-79
2022/09/11 05:00:39;;;;;;;40.53;18.20;;;15.20;46.50;;;;;;5089320;28;20424;-80
2022/09/11 05:03:10;;;;;;;46.07;17.07;;;15.20;46.50;;;;;;5090364;28;20720;-81
2022/09/11 05:05:44;;;;;;;52.60;18.30;;;15.20;46.70;;;;;;5088163;28;20417;-80
2022/09/11 05:08:26;;;;;;;41.87;19.87;;;15.20;46.60;;;;;;5080033;28;20395;-80
2022/09/11 05:11:13;;;;;;;41.20;17.40;;;15.30;46.60;;;;;;5089905;28;20421;-81
2022/09/11 05:13:40;;;;;;;37.30;17.20;;;15.30;46.60;;;;;;5079620;28;20835;-80
2022/09/11 05:16:21;;;;;;;37.17;16.07;;;15.40;46.70;;;;;;5083253;28;20455;-80
2022/09/11 05:18:51;;;;;;;45.37;17.53;;;15.40;46.70;;;;;;5081226;28;20387;-80
2022/09/11 05:21:44;;;;;;;39.83;16.80;;;15.50;46.80;;;;;;5076879;28;20401;-82
2022/09/11 05:24:10;;;;;;;30.00;15.57;;;15.50;46.80;;;;;;5075465;28;20408;-82
2022/09/11 05:26:45;;;;;;;41.93;17.13;;;15.50;47.00;;;;;;5088140;28;20395;-82
2022/09/11 05:29:15;;;;;;;36.10;17.60;;;15.50;47.00;;;;;;5091908;28;20705;-83
2022/09/11 05:32:02;;;;;;;37.17;15.87;;;15.50;46.80;;;;;;5090346;28;20438;-83
2022/09/11 05:34:45;;;;;;;40.90;17.33;;;15.50;46.80;;;;;;5078721;28;20439;-81
2022/09/11 05:37:26;;;;;;;42.60;17.50;;;15.50;46.80;;;;;;5074805;28;20881;-80
2022/09/11 05:40:14;;;;;;;41.20;17.93;;;15.50;46.80;;;;;;5088457;28;20482;-80
2022/09/11 05:42:45;;;;;;;39.23;18.77;;;15.50;46.80;;;;;;5075933;28;20392;-80
2022/09/11 05:45:21;;;;;;;42.60;19.90;;;15.60;47.00;;;;;;5075956;28;20396;-81
2022/09/11 05:47:46;;;;;;;43.93;19.47;;;15.60;47.00;;;;;;5075958;28;20394;-81
2022/09/11 05:50:15;;;;;;;38.27;18.67;;;15.70;47.00;;;;;;5089922;28;20388;-81
2022/09/11 05:52:45;;;;;;;44.00;19.90;;;15.70;47.00;;;;;;5075204;28;20180;-81
2022/09/11 05:55:10;;;;;;;44.47;21.20;;;15.70;47.00;;;;;;5080958;28;20439;-81
2022/09/11 05:57:36;;;;;;;44.63;21.40;;;15.70;47.00;;;;;;5075686;28;20596;-81
2022/09/11 06:00:15;;;;;;;46.33;21.37;;;15.70;47.10;;;;;;5074400;28;20642;-81
2022/09/11 06:02:44;;;;;;;47.13;20.37;;;15.60;46.90;;;;;;5089182;28;20174;-80
2022/09/11 06:05:15;;;;;;;46.60;19.70;;;15.60;47.00;;;;;;5075653;28;20754;-81
2022/09/11 06:07:45;;;;;;;40.13;19.77;;;15.70;47.00;;;;;;5074567;28;20416;-81
2022/09/11 06:10:15;;;;;;;39.23;21.07;;;15.60;41.90;;;;;;5086708;28;20477;-81
2022/09/11 06:12:45;;;;;;;44.80;22.03;;;15.60;38.70;;;;;;5084382;28;20407;-80
2022/09/11 06:15:15;;;;;;;43.40;20.77;;;15.60;41.50;;;;;;5075320;28;20464;-81
2022/09/11 06:17:58;;;;;;;48.37;22.17;;;15.70;41.00;;;;;;5094771;28;20375;-80
2022/09/11 06:20:40;;;;;;;53.63;21.63;;;15.60;42.30;;;;;;5094890;28;20371;-82
2022/09/11 06:23:15;;;;;;;46.80;21.30;;;15.70;40.90;;;;;;5075301;28;20371;-82
2022/09/11 06:25:45;;;;;;;48.40;23.10;;;15.70;47.10;;;;;;5080086;28;20390;-82
2022/09/11 06:28:15;;;;;;;49.53;22.60;;;15.70;47.10;;;;;;5078121;28;20391;-82
2022/09/11 06:30:51;;;;;;;48.13;22.77;;;15.80;47.00;;;;;;5075442;28;20401;-82
2022/09/11 06:33:35;;;;;;;46.33;21.80;;;15.80;47.00;;;;;;5088915;28;20394;-84
2022/09/11 06:36:26;;;;;;;50.73;21.80;;;15.90;47.20;;;;;;5094782;28;20477;-82
2022/09/11 06:39:03;;;;;;;56.80;24.80;;;16.00;47.20;;;;;;5074283;28;20406;-82
2022/09/11 06:41:33;;;;;;;51.60;23.60;;;16.00;47.20;;;;;;5074962;28;20520;-82
2022/09/11 06:43:58;;;;;;;57.90;26.87;;;16.00;47.40;;;;;;5088784;28;20961;-82
2022/09/11 06:46:27;;;;;;;60.50;25.60;;;16.20;47.60;;;;;;5081967;28;20432;-82
2022/09/11 06:49:09;;;;;;;54.80;25.57;;;16.40;47.70;;;;;;5073601;28;20182;-82
2022/09/11 06:51:46;;;;;;;63.43;26.70;;;16.60;47.80;;;;;;5076088;28;20400;-81
2022/09/11 06:54:12;;;;;;;60.97;26.80;;;17.00;48.30;;;;;;5082109;28;20398;-81
2022/09/11 06:56:45;;;;;;;57.03;27.63;;;17.30;48.50;;;;;;5079679;28;20439;-81
2022/09/11 06:59:32;;;;;;;52.80;25.00;;;17.50;28.90;;;;;;5077521;28;20180;-81
2022/09/11 07:02:32;;;;;;;52.20;27.20;;;17.70;24.10;;;;;;5080418;28;20416;-81
2022/09/11 07:05:09;;;;;;;46.33;25.33;;;17.80;19.40;;;;;;5086277;28;20413;-82
2022/09/11 07:07:52;;;;;;;46.80;25.13;;;17.90;14.00;;;;;;5076396;28;20500;-83
2022/09/11 07:10:38;;;;;;;51.10;25.73;;;18.00;6.60;;;;;;5083933;28;20488;-82
2022/09/11 07:13:23;;;;;;;42.60;24.40;;;18.00;3.30;;;;;;5093345;28;20410;-83
2022/09/11 07:16:04;;;;;;;47.83;25.10;;;18.00;2.50;;;;;;5082206;28;20805;-83
2022/09/11 07:18:38;;;;;;;42.40;23.97;;;18.10;1.00;;;;;;5076038;28;20416;-83
2022/09/11 07:21:21;;;;;;;45.87;24.53;;;18.10;1.00;;;;;;5081479;28;20424;-83
2022/09/11 07:24:08;;;;;;;50.70;25.23;;;18.20;1.00;;;;;;5090427;28;20437;-83
2022/09/11 07:27:03;;;;;;;45.97;24.53;;;18.30;1.00;;;;;;5092777;28;20431;-83
2022/09/11 07:29:33;;;;;;;40.20;22.63;;;18.40;1.00;;;;;;5094325;28;20398;-82
2022/09/11 07:32:15;;;;;;;42.53;24.30;;;18.40;1.00;;;;;;5074739;28;20535;-83
2022/09/11 07:34:48;;;;;;;50.90;24.57;;;18.60;1.00;;;;;;5076922;28;20422;-83
2022/09/11 07:37:27;;;;;;;37.20;22.57;;;18.70;1.00;;;;;;5084159;28;20421;-83
2022/09/11 07:43:14;;;;;;;38.63;22.97;;;19.30;1.00;;;;;;5075934;28;20420;-83
2022/09/11 07:45:57;;;;;;;40.47;22.50;;;19.60;1.00;;;;;;5072842;28;20795;-83
2022/09/11 07:48:28;;;;;;;37.77;22.07;;;19.80;1.00;;;;;;5080906;28;20431;-83
2022/09/11 07:51:01;;;;;;;36.70;21.90;;;19.80;1.00;;;;;;5082143;28;20419;-83
2022/09/11 07:53:48;;;;;;;37.23;21.43;;;19.90;1.00;;;;;;5075849;28;20433;-83
2022/09/11 07:56:27;;;;;;;31.77;19.70;;;19.90;1.00;;;;;;5072445;28;20468;-84
2022/09/11 07:58:54;;;;;;;37.33;21.07;;;19.90;1.00;;;;;;5073422;28;20447;-84
2022/09/11 08:01:26;;;;;;;39.10;21.43;;;19.90;1.00;;;;;;5084692;28;20420;-83
2022/09/11 08:04:32;;;;;;;41.63;22.33;;;19.90;1.00;;;;;;5081352;28;20416;-84
2022/09/11 08:07:15;;;;;;;39.57;21.47;;;19.90;1.00;;;;;;5073788;28;20437;-82
2022/09/11 08:10:26;;;;;;;32.30;20.20;;;20.00;1.00;;;;;;5082563;28;20954;-82
2022/09/11 08:13:38;;;;;;;33.10;20.50;;;20.20;1.00;;;;;;5086717;28;20413;-83
2022/09/11 08:16:44;;;;;;;35.67;20.43;;;20.40;1.00;;;;;;5085213;28;20464;-82
2022/09/11 08:19:20;;;;;;;46.20;20.30;;;20.30;1.00;;;;;;5073436;28;20425;-81
2022/09/11 08:21:46;;;;;;;35.90;20.30;;;20.30;1.00;;;;;;5083757;28;20450;-82
2022/09/11 08:24:21;;;;;;;34.67;21.40;;;20.10;1.00;;;;;;5077169;28;20426;-81
2022/09/11 08:26:47;;;;;;;36.60;21.53;;;20.20;1.00;;;;;;5073351;28;20417;-81
2022/09/11 08:29:21;;;;;;;37.93;21.80;;;20.20;1.00;;;;;;5090584;28;20443;-81
2022/09/11 08:32:20;;;;;;;31.30;19.40;;;20.20;1.00;;;;;;5092108;28;20868;-81
2022/09/11 08:35:03;;;;;;;40.87;19.73;;;20.30;1.00;;;;;;5078057;28;20441;-85
2022/09/11 08:37:39;;;;;;;42.57;21.77;;;20.40;1.00;;;;;;5091719;28;20447;-84
2022/09/11 08:40:44;;;;;;;37.30;20.07;;;20.50;1.00;;;;;;5085860;28;20414;-85
2022/09/11 08:43:26;;;;;;;35.80;20.87;;;20.60;1.00;;;;;;5076708;28;20403;-85
2022/09/11 08:46:15;;;;;;;35.97;20.40;;;21.00;1.00;;;;;;5077856;28;20426;-85
2022/09/11 08:52:04;;;;;;;30.63;17.90;;;21.40;1.00;;;;;;5091387;28;20831;-85
2022/09/11 08:55:03;;;;;;;33.33;20.13;;;21.50;1.00;;;;;;5082043;28;20794;-86
2022/09/11 08:57:45;;;;;;;38.10;20.60;;;21.30;1.00;;;;;;5085917;28;20422;-78
2022/09/11 09:00:20;;;;;;;36.90;20.07;;;21.30;1.00;;;;;;5084290;28;20451;-77
2022/09/11 09:03:08;;;;;;;36.40;18.90;;;21.30;1.00;;;;;;5090432;28;20406;-77
2022/09/11 09:05:49;;;;;;;31.90;18.53;;;21.40;1.00;;;;;;5082285;28;20788;-78
2022/09/11 09:08:39;;;;;;;33.40;19.53;;;21.40;1.00;;;;;;5086542;28;20431;-77
2022/09/11 09:11:19;;;;;;;32.53;19.47;;;21.40;1.00;;;;;;5084966;28;20415;-77
2022/09/11 09:14:21;;;;;;;30.43;19.37;;;21.30;1.00;;;;;;5083749;28;20446;-77
2022/09/11 09:17:12;;;;;;;34.10;19.57;;;21.10;1.00;;;;;;5076490;28;20457;-77
2022/09/11 09:20:25;;;;;;;31.00;20.07;;;21.10;1.00;;;;;;5089830;28;20423;-78
2022/09/11 09:22:53;;;;;;;30.83;18.50;;;21.30;1.00;;;;;;5009308;28;20436;-78
2022/09/11 09:25:22;;;;;;;27.87;18.13;;;21.10;1.00;;;;;;5014497;28;20424;-77
2022/09/11 09:28:20;;;;;;;30.40;18.13;;;21.10;1.00;;;;;;5014927;28;20424;-77
2022/09/11 09:31:00;;;;;;;26.50;17.87;;;21.20;1.00;;;;;;5014455;28;20465;-77
2022/09/11 09:33:30;;;;;;;27.60;17.90;;;21.40;1.00;;;;;;5014733;28;20441;-77
2022/09/11 09:36:01;;;;;;;30.93;17.83;;;21.50;1.00;;;;;;5014605;28;20454;-76
2022/09/11 09:45:44;;;;;;;27.87;16.57;;;21.80;1.00;;;;;;5006263;28;20489;-83
2022/09/11 09:51:31;;;;;;;31.37;15.50;;;22.00;1.00;;;;;;5013601;28;20491;-84
2022/09/11 09:54:35;;;;;;;23.77;14.60;;;22.20;1.00;;;;;;4999762;28;20444;-82
2022/09/11 09:57:09;;;;;;;23.33;15.20;;;22.40;1.00;;;;;;5013545;28;20581;-81
2022/09/11 10:02:57;;;;;;;26.40;14.27;;;22.50;1.00;;;;;;5080468;28;20412;-79
2022/09/11 10:05:58;;;;;;;19.90;12.90;;;22.70;1.00;;;;;;5092787;28;20489;-79
2022/09/11 10:08:33;;;;;;;19.40;12.00;;;22.80;1.00;;;;;;5088504;28;20474;-78
2022/09/11 10:11:04;;;;;;;20.00;12.77;;;22.80;1.00;;;;;;5075860;28;20405;-77
2022/09/11 10:13:37;;;;;;;19.10;12.60;;;22.90;1.00;;;;;;5078009;28;20417;-77
2022/09/11 10:16:18;;;;;;;24.23;12.90;;;23.10;1.00;;;;;;5081702;28;20530;-77
2022/09/11 10:18:45;;;;;;;18.83;11.70;;;23.20;1.00;;;;;;5085649;28;20417;-76
2022/09/11 10:21:11;;;;;;;17.70;11.10;;;23.20;1.00;;;;;;5075544;28;20414;-76
2022/09/11 10:27:34;;;;;;;18.33;11.90;;;23.30;1.00;;;;;;5085223;28;20190;-82
2022/09/11 10:30:28;;;;;;;23.33;11.67;;;23.30;1.00;;;;;;5095408;28;20447;-82
2022/09/11 10:33:50;;;;;;;13.40;11.17;;;23.20;1.00;;;;;;5089105;28;20441;-82
2022/09/11 10:36:24;;;;;;;16.97;12.10;;;23.40;1.00;;;;;;5075563;28;20478;-83
2022/09/11 10:38:51;;;;;;;17.70;12.10;;;23.60;1.00;;;;;;5089032;28;20913;-77
2022/09/11 10:41:23;;;;;;;15.87;11.40;;;23.90;1.00;;;;;;5082162;28;20430;-77
2022/09/11 10:44:10;;;;;;;18.20;12.10;;;24.20;1.00;;;;;;5084311;28;20428;-79
2022/09/11 10:46:45;;;;;;;18.80;12.90;;;24.60;1.00;;;;;;5088592;28;20418;-77
2022/09/11 10:49:27;;;;;;;20.30;13.00;;;24.80;1.00;;;;;;5076328;28;20421;-77
2022/09/11 10:52:09;;;;;;;18.70;12.10;;;24.70;1.00;;;;;;5088026;28;20414;-77
2022/09/11 10:55:14;;;;;;;17.70;10.70;;;24.20;1.00;;;;;;5080385;28;20432;-77
2022/09/11 10:57:53;;;;;;;18.50;10.50;;;23.10;1.00;;;;;;5081523;28;20416;-75
2022/09/11 11:00:27;;;;;;;19.60;10.20;;;22.80;1.00;;;;;;5080879;28;21045;-76
2022/09/11 11:03:16;;;;;;;18.10;10.50;;;22.50;1.00;;;;;;5083978;28;20391;-80
2022/09/11 11:05:59;;;;;;;14.90;10.60;;;22.10;1.00;;;;;;5081123;28;20416;-80
2022/09/11 11:08:57;;;;;;;18.30;10.50;;;21.90;1.00;;;;;;5077355;28;20820;-81
2022/09/11 11:11:40;;;;;;;18.37;10.13;;;21.80;1.00;;;;;;5078334;28;20405;-80
2022/09/11 11:14:20;;;;;;;19.23;9.80;;;21.60;1.00;;;;;;5074773;28;20420;-81
2022/09/11 11:17:23;;;;;;;16.50;9.60;;;21.60;1.00;;;;;;5084227;28;20824;-81
2022/09/11 11:20:26;;;;;;;12.13;8.83;;;21.50;1.00;;;;;;5089585;28;20746;-80
2022/09/11 11:23:10;;;;;;;18.57;9.23;;;21.60;1.00;;;;;;5074879;28;20414;-80
2022/09/11 11:25:56;;;;;;;13.90;8.90;;;21.80;1.00;;;;;;5080835;28;20445;-80
2022/09/11 11:28:59;;;;;;;11.27;8.13;;;21.80;1.00;;;;;;5088558;28;20503;-80
2022/09/11 11:31:39;;;;;;;12.93;8.80;;;22.00;1.00;;;;;;5072760;28;20473;-81
2022/09/11 11:34:29;;;;;;;13.10;8.60;;;22.20;1.00;;;;;;5074226;28;20413;-80
2022/09/11 11:37:23;;;;;;;14.83;8.37;;;22.30;1.00;;;;;;5077397;28;20476;-80
2022/09/11 11:40:14;;;;;;;9.83;7.40;;;22.60;1.00;;;;;;5074957;28;20413;-80
2022/09/11 11:43:05;;;;;;;13.27;7.40;;;22.50;1.00;;;;;;5077456;28;20910;-81
2022/09/11 11:45:54;;;;;;;12.87;8.00;;;22.40;1.00;;;;;;5087000;28;20422;-80
2022/09/11 11:48:48;;;;;;;10.13;7.00;;;22.40;1.00;;;;;;5082106;28;20427;-82
2022/09/11 11:51:50;;;;;;;8.37;6.50;;;22.30;1.00;;;;;;5073673;28;20446;-81
2022/09/11 11:54:24;;;;;;;8.57;6.00;;;22.10;1.00;;;;;;5074160;28;20395;-81
2022/09/11 11:56:53;;;;;;;8.90;6.20;;;21.90;1.00;;;;;;5073565;28;20499;-81
2022/09/11 11:59:27;;;;;;;7.23;6.07;;;21.90;1.00;;;;;;5087891;28;20406;-80
2022/09/11 12:02:19;;;;;;;8.03;6.27;;;21.90;1.00;;;;;;5082647;28;20527;-81
2022/09/11 12:05:16;;;;;;;8.27;5.90;;;22.00;1.00;;;;;;5079886;28;20977;-80
2022/09/11 12:07:46;;;;;;;7.10;5.73;;;22.30;1.00;;;;;;5084392;28;20905;-80
2022/09/11 12:10:32;;;;;;;9.77;6.20;;;22.50;1.00;;;;;;5080524;28;20813;-80
2022/09/11 12:13:02;;;;;;;10.70;6.53;;;22.60;1.00;;;;;;5087038;28;20415;-82
2022/09/11 12:15:56;;;;;;;10.90;7.00;;;22.60;1.00;;;;;;5089398;28;20451;-80
2022/09/11 12:19:18;;;;;;;10.70;6.90;;;22.60;1.00;;;;;;5073079;28;20418;-79
2022/09/11 12:22:04;;;;;;;13.57;7.53;;;22.90;1.00;;;;;;5046227;28;20766;-79
2022/09/11 12:24:53;;;;;;;8.30;6.57;;;23.30;1.00;;;;;;5051454;28;20905;-79
2022/09/11 12:27:56;;;;;;;12.57;7.13;;;24.00;1.00;;;;;;5051149;28;20401;-79
2022/09/11 12:30:30;;;;;;;14.03;8.67;;;24.50;1.00;;;;;;5051235;28;20430;-78
2022/09/11 12:33:47;;;;;;;15.80;7.40;;;24.80;1.00;;;;;;5050684;28;20477;-78
2022/09/11 12:36:32;;;;;;;14.47;8.60;;;25.10;1.00;;;;;;5050983;28;20448;-79
2022/09/11 12:39:27;;;;;;;12.40;6.77;;;24.90;1.00;;;;;;5051457;28;20409;-75
2022/09/11 12:42:19;;;;;;;9.43;6.00;;;24.80;1.00;;;;;;5011113;28;20461;-75
2022/09/11 12:44:45;;;;;;;10.27;6.17;;;24.60;1.00;;;;;;5008248;28;20426;-74
2022/09/11 12:47:28;;;;;;;10.17;6.90;;;24.70;1.00;;;;;;5010388;28;20430;-73
2022/09/11 12:50:05;;;;;;;12.90;6.93;;;24.50;1.00;;;;;;5008997;28;20222;-74
2022/09/11 12:52:44;;;;;;;8.90;6.60;;;24.50;1.00;;;;;;5004297;28;20433;-74
2022/09/11 12:55:50;;;;;;;9.17;6.53;;;24.50;1.00;;;;;;5031974;28;20483;-81
2022/09/11 12:58:32;;;;;;;9.93;6.80;;;24.30;1.00;;;;;;5036529;28;20429;-80
2022/09/11 13:01:13;;;;;;;9.17;6.33;;;24.20;1.00;;;;;;5049991;28;20417;-80
2022/09/11 13:04:10;;;;;;;10.73;7.27;;;24.30;1.00;;;;;;5041612;28;20430;-81
2022/09/11 13:06:56;;;;;;;9.10;6.60;;;24.20;1.00;;;;;;5031093;28;20843;-80
2022/09/11 13:09:37;;;;;;;10.47;6.77;;;24.50;1.00;;;;;;5035621;28;20408;-75
2022/09/11 13:12:20;;;;;;;11.37;7.30;;;24.60;1.00;;;;;;5030658;28;20750;-74
2022/09/11 13:14:52;;;;;;;7.47;5.93;;;24.60;1.00;;;;;;5034390;28;20465;-74
2022/09/11 13:17:30;;;;;;;12.83;7.20;;;24.60;1.00;;;;;;5033318;28;20462;-73
2022/09/11 13:20:06;;;;;;;9.60;7.00;;;24.50;1.00;;;;;;5085070;28;20438;-74
2022/09/11 13:22:33;;;;;;;9.83;6.50;;;24.50;1.00;;;;;;5076510;28;20428;-75
2022/09/11 13:25:13;;;;;;;8.87;6.13;;;24.60;1.00;;;;;;5086345;28;20436;-79
2022/09/11 13:27:43;;;;;;;11.07;7.17;;;24.70;1.00;;;;;;5076228;28;20424;-79
2022/09/11 13:30:18;;;;;;;12.37;7.50;;;24.70;1.00;;;;;;5079915;28;20466;-80
2022/09/11 13:33:16;;;;;;;9.60;6.87;;;24.80;1.00;;;;;;5084928;28;20432;-77
2022/09/11 13:36:26;;;;;;;9.40;6.60;;;24.90;1.00;;;;;;5082511;28;20466;-77
2022/09/11 13:39:00;;;;;;;9.67;7.07;;;25.10;1.00;;;;;;5083029;28;20423;-80
2022/09/11 13:41:43;;;;;;;12.03;7.43;;;24.90;1.00;;;;;;5096375;28;20536;-81
2022/09/11 13:44:40;;;;;;;12.43;7.43;;;24.90;1.00;;;;;;5078743;28;20408;-82
2022/09/11 13:47:23;;;;;;;10.43;7.13;;;24.90;1.00;;;;;;5082880;28;20768;-80
2022/09/11 13:50:16;;;;;;;11.10;7.20;;;25.20;1.00;;;;;;5080051;28;20467;-81
2022/09/11 13:53:03;;;;;;;8.97;6.40;;;25.40;1.00;;;;;;5075153;28;20412;-80
2022/09/11 13:55:29;;;;;;;15.40;6.70;;;25.60;1.00;;;;;;5076459;28;20463;-79
2022/09/11 13:57:59;;;;;;;11.00;6.17;;;25.90;1.00;;;;;;5078538;28;20435;-79
2022/09/11 14:00:49;;;;;;;9.47;7.33;;;26.00;1.00;;;;;;5085595;28;20168;-78
2022/09/11 14:03:19;;;;;;;7.07;5.87;;;26.30;1.00;;;;;;5075101;28;20427;-82
2022/09/11 14:06:16;;;;;;;8.73;6.27;;;26.40;1.00;;;;;;5082268;28;20405;-82
2022/09/11 14:08:55;;;;;;;9.37;6.70;;;26.50;1.00;;;;;;5084203;28;20899;-82
2022/09/11 14:11:39;;;;;;;8.03;6.50;;;26.50;1.00;;;;;;5082457;28;20499;-80
2022/09/11 14:14:12;;;;;;;7.40;6.00;;;26.50;1.00;;;;;;5098673;28;20891;-82
2022/09/11 14:16:57;;;;;;;9.60;6.77;;;26.50;1.00;;;;;;5091447;28;20534;-82
2022/09/11 14:19:53;;;;;;;9.47;6.20;;;26.70;1.00;;;;;;5076269;28;20926;-82
2022/09/11 14:26:08;;;;;;;11.50;7.53;;;27.20;1.00;;;;;;5086029;28;20412;-81
2022/09/11 14:28:52;;;;;;;10.53;7.73;;;27.10;1.00;;;;;;5091848;28;20778;-80
2022/09/11 14:31:40;;;;;;;10.17;6.20;;;27.00;1.00;;;;;;5079980;28;20437;-80